sensor_id;sensor_type;location;lat;lon;timestamp;temperature;humidity
10294;DHT22;5192;50.328;7.610;2023-09-19T00:00:59;16.10;99.90
10294;DHT22;5192;50.328;7.610;2023-09-19T00:03:27;16.10;99.90
10294;DHT22;5192;50.328;7.610;2023-09-19T00:05:58;16.10;99.90
10294;DHT22;5192;50.328;7.610;2023-09-19T00:08:26;16.00;99.90
10294;DHT22;5192;50.328;7.610;2023-09-19T00:10:54;16.00;99.90
10294;DHT22;5192;50.328;7.610;2023-09-19T00:13:21;16.00;99.90
10294;DHT22;5192;50.328;7.610;2023-09-19T00:15:48;16.00;99.90
10294;DHT22;5192;50.328;7.610;2023-09-19T00:18:14;16.00;99.90
10294;DHT22;5192;50.328;7.610;2023-09-19T00:20:42;15.90;99.90
10294;DHT22;5192;50.328;7.610;2023-09-19T00:23:10;15.90;99.90
10294;DHT22;5192;50.328;7.610;2023-09-19T00:25:38;15.90;99.90
10294;DHT22;5192;50.328;7.610;2023-09-19T00:28:05;15.80;99.90
10294;DHT22;5192;50.328;7.610;2023-09-19T00:30:35;15.80;99.90
10294;DHT22;5192;50.328;7.610;2023-09-19T00:33:07;15.80;99.90
10294;DHT22;5192;50.328;7.610;2023-09-19T00:35:36;15.70;99.90
10294;DHT22;5192;50.328;7.610;2023-09-19T00:38:03;15.70;99.90
10294;DHT22;5192;50.328;7.610;2023-09-19T00:40:31;15.60;99.90
10294;DHT22;5192;50.328;7.610;2023-09-19T00:43:00;15.50;99.90
10294;DHT22;5192;50.328;7.610;2023-09-19T00:45:26;15.50;99.90
10294;DHT22;5192;50.328;7.610;2023-09-19T00:47:57;15.30;99.90
10294;DHT22;5192;50.328;7.610;2023-09-19T00:50:28;15.30;99.90
10294;DHT22;5192;50.328;7.610;2023-09-19T00:52:55;15.30;99.90
10294;DHT22;5192;50.328;7.610;2023-09-19T00:55:27;15.30;99.90
10294;DHT22;5192;50.328;7.610;2023-09-19T00:57:57;15.20;99.90
10294;DHT22;5192;50.328;7.610;2023-09-19T01:00:26;15.20;99.90
10294;DHT22;5192;50.328;7.610;2023-09-19T01:02:54;15.30;99.90
10294;DHT22;5192;50.328;7.610;2023-09-19T01:05:22;15.50;99.90
10294;DHT22;5192;50.328;7.610;2023-09-19T01:07:51;15.50;93.60
10294;DHT22;5192;50.328;7.610;2023-09-19T01:10:20;15.50;95.20
10294;DHT22;5192;50.328;7.610;2023-09-19T01:13:18;15.50;93.80
10294;DHT22;5192;50.328;7.610;2023-09-19T01:22:00;15.40;93.20
10294;DHT22;5192;50.328;7.610;2023-09-19T01:30:17;15.40;83.10
10294;DHT22;5192;50.328;7.610;2023-09-19T01:32:51;15.30;85.30
10294;DHT22;5192;50.328;7.610;2023-09-19T01:35:20;15.40;86.20
10294;DHT22;5192;50.328;7.610;2023-09-19T01:37:46;15.30;90.60
10294;DHT22;5192;50.328;7.610;2023-09-19T01:40:15;15.30;93.90
10294;DHT22;5192;50.328;7.610;2023-09-19T01:46:09;15.20;99.90
10294;DHT22;5192;50.328;7.610;2023-09-19T01:49:09;15.20;96.80
10294;DHT22;5192;50.328;7.610;2023-09-19T01:54:27;15.50;88.60
10294;DHT22;5192;50.328;7.610;2023-09-19T01:57:17;15.50;86.70
10294;DHT22;5192;50.328;7.610;2023-09-19T02:00:16;15.40;89.80
10294;DHT22;5192;50.328;7.610;2023-09-19T02:02:50;15.40;88.50
10294;DHT22;5192;50.328;7.610;2023-09-19T02:05:25;15.30;90.20
10294;DHT22;5192;50.328;7.610;2023-09-19T02:07:52;15.30;86.00
10294;DHT22;5192;50.328;7.610;2023-09-19T02:10:20;15.40;90.00
10294;DHT22;5192;50.328;7.610;2023-09-19T02:12:47;15.30;88.60
10294;DHT22;5192;50.328;7.610;2023-09-19T02:15:15;15.30;89.10
10294;DHT22;5192;50.328;7.610;2023-09-19T02:17:43;15.20;86.80
10294;DHT22;5192;50.328;7.610;2023-09-19T02:20:13;15.20;84.20
10294;DHT22;5192;50.328;7.610;2023-09-19T02:22:44;15.20;85.20
10294;DHT22;5192;50.328;7.610;2023-09-19T02:25:11;15.20;84.30
10294;DHT22;5192;50.328;7.610;2023-09-19T02:27:41;15.20;88.00
10294;DHT22;5192;50.328;7.610;2023-09-19T02:30:07;15.20;87.10
10294;DHT22;5192;50.328;7.610;2023-09-19T02:32:34;15.10;85.50
10294;DHT22;5192;50.328;7.610;2023-09-19T02:35:06;15.20;80.20
10294;DHT22;5192;50.328;7.610;2023-09-19T02:37:33;15.20;80.20
10294;DHT22;5192;50.328;7.610;2023-09-19T02:40:02;15.20;84.10
10294;DHT22;5192;50.328;7.610;2023-09-19T02:42:46;15.20;82.00
10294;DHT22;5192;50.328;7.610;2023-09-19T02:45:18;15.20;82.10
10294;DHT22;5192;50.328;7.610;2023-09-19T02:47:56;15.20;80.70
10294;DHT22;5192;50.328;7.610;2023-09-19T02:50:23;15.20;83.60
10294;DHT22;5192;50.328;7.610;2023-09-19T02:52:50;15.20;80.80
10294;DHT22;5192;50.328;7.610;2023-09-19T02:55:18;15.20;82.60
10294;DHT22;5192;50.328;7.610;2023-09-19T02:58:03;15.20;81.00
10294;DHT22;5192;50.328;7.610;2023-09-19T03:00:33;15.20;82.90
10294;DHT22;5192;50.328;7.610;2023-09-19T03:03:01;15.20;81.40
10294;DHT22;5192;50.328;7.610;2023-09-19T03:05:29;15.20;84.10
10294;DHT22;5192;50.328;7.610;2023-09-19T03:07:59;15.30;84.30
10294;DHT22;5192;50.328;7.610;2023-09-19T03:10:29;15.20;84.40
10294;DHT22;5192;50.328;7.610;2023-09-19T03:12:58;15.30;85.40
10294;DHT22;5192;50.328;7.610;2023-09-19T03:15:27;15.30;86.10
10294;DHT22;5192;50.328;7.610;2023-09-19T03:17:55;15.30;86.60
10294;DHT22;5192;50.328;7.610;2023-09-19T03:20:23;15.30;87.50
10294;DHT22;5192;50.328;7.610;2023-09-19T03:22:52;15.30;88.00
10294;DHT22;5192;50.328;7.610;2023-09-19T03:25:18;15.30;85.80
10294;DHT22;5192;50.328;7.610;2023-09-19T03:27:46;15.30;87.70
10294;DHT22;5192;50.328;7.610;2023-09-19T03:30:14;15.30;90.10
10294;DHT22;5192;50.328;7.610;2023-09-19T03:32:46;15.30;90.80
10294;DHT22;5192;50.328;7.610;2023-09-19T03:35:16;15.20;91.50
10294;DHT22;5192;50.328;7.610;2023-09-19T03:37:45;15.10;89.70
10294;DHT22;5192;50.328;7.610;2023-09-19T03:40:11;15.10;90.20
10294;DHT22;5192;50.328;7.610;2023-09-19T03:42:41;15.00;90.70
10294;DHT22;5192;50.328;7.610;2023-09-19T03:45:08;15.00;92.70
10294;DHT22;5192;50.328;7.610;2023-09-19T03:47:39;14.90;94.50
10294;DHT22;5192;50.328;7.610;2023-09-19T03:50:05;15.00;96.80
10294;DHT22;5192;50.328;7.610;2023-09-19T03:52:34;14.90;96.70
10294;DHT22;5192;50.328;7.610;2023-09-19T03:55:02;14.90;96.60
10294;DHT22;5192;50.328;7.610;2023-09-19T03:57:31;14.90;96.40
10294;DHT22;5192;50.328;7.610;2023-09-19T03:59:58;14.90;98.00
10294;DHT22;5192;50.328;7.610;2023-09-19T04:02:26;14.80;99.30
10294;DHT22;5192;50.328;7.610;2023-09-19T04:04:59;14.90;99.40
10294;DHT22;5192;50.328;7.610;2023-09-19T04:07:26;14.70;99.70
10294;DHT22;5192;50.328;7.610;2023-09-19T04:09:56;14.70;99.90
10294;DHT22;5192;50.328;7.610;2023-09-19T04:12:22;14.60;99.90
10294;DHT22;5192;50.328;7.610;2023-09-19T04:14:49;14.60;99.90
10294;DHT22;5192;50.328;7.610;2023-09-19T04:17:16;14.60;99.90
10294;DHT22;5192;50.328;7.610;2023-09-19T04:19:43;14.50;99.90
10294;DHT22;5192;50.328;7.610;2023-09-19T04:22:12;14.40;99.90
10294;DHT22;5192;50.328;7.610;2023-09-19T04:24:39;14.40;99.90
10294;DHT22;5192;50.328;7.610;2023-09-19T04:27:07;14.40;99.90
10294;DHT22;5192;50.328;7.610;2023-09-19T04:29:36;14.30;99.90
10294;DHT22;5192;50.328;7.610;2023-09-19T04:32:04;14.40;99.90
10294;DHT22;5192;50.328;7.610;2023-09-19T04:34:33;14.30;99.90
10294;DHT22;5192;50.328;7.610;2023-09-19T04:37:20;14.30;99.90
10294;DHT22;5192;50.328;7.610;2023-09-19T04:39:49;14.40;99.90
10294;DHT22;5192;50.328;7.610;2023-09-19T04:42:17;14.40;99.90
10294;DHT22;5192;50.328;7.610;2023-09-19T04:44:44;14.50;99.90
10294;DHT22;5192;50.328;7.610;2023-09-19T04:47:11;14.50;99.90
10294;DHT22;5192;50.328;7.610;2023-09-19T04:49:39;14.50;99.90
10294;DHT22;5192;50.328;7.610;2023-09-19T04:52:06;14.50;99.90
10294;DHT22;5192;50.328;7.610;2023-09-19T04:54:32;14.50;99.90
10294;DHT22;5192;50.328;7.610;2023-09-19T04:57:00;14.60;98.30
10294;DHT22;5192;50.328;7.610;2023-09-19T04:59:40;14.70;96.60
10294;DHT22;5192;50.328;7.610;2023-09-19T05:02:08;14.80;95.60
10294;DHT22;5192;50.328;7.610;2023-09-19T05:04:35;14.80;95.10
10294;DHT22;5192;50.328;7.610;2023-09-19T05:07:02;14.80;95.60
10294;DHT22;5192;50.328;7.610;2023-09-19T05:09:28;14.80;95.40
10294;DHT22;5192;50.328;7.610;2023-09-19T05:11:55;14.80;96.30
10294;DHT22;5192;50.328;7.610;2023-09-19T05:14:25;14.90;95.80
10294;DHT22;5192;50.328;7.610;2023-09-19T05:16:52;14.80;93.20
10294;DHT22;5192;50.328;7.610;2023-09-19T05:19:18;14.80;92.50
10294;DHT22;5192;50.328;7.610;2023-09-19T05:21:45;14.80;94.10
10294;DHT22;5192;50.328;7.610;2023-09-19T05:24:14;14.80;94.10
10294;DHT22;5192;50.328;7.610;2023-09-19T05:26:44;15.00;95.10
10294;DHT22;5192;50.328;7.610;2023-09-19T05:29:11;15.20;91.60
10294;DHT22;5192;50.328;7.610;2023-09-19T05:31:40;15.10;76.10
10294;DHT22;5192;50.328;7.610;2023-09-19T05:34:09;15.00;78.50
10294;DHT22;5192;50.328;7.610;2023-09-19T05:36:36;15.00;79.10
10294;DHT22;5192;50.328;7.610;2023-09-19T05:39:03;15.00;80.60
10294;DHT22;5192;50.328;7.610;2023-09-19T05:41:31;15.00;80.80
10294;DHT22;5192;50.328;7.610;2023-09-19T05:43:58;15.00;72.20
10294;DHT22;5192;50.328;7.610;2023-09-19T05:46:26;15.00;75.60
10294;DHT22;5192;50.328;7.610;2023-09-19T05:48:56;15.00;73.40
10294;DHT22;5192;50.328;7.610;2023-09-19T05:51:23;15.10;69.60
10294;DHT22;5192;50.328;7.610;2023-09-19T05:53:58;15.00;71.60
10294;DHT22;5192;50.328;7.610;2023-09-19T05:56:25;15.00;71.80
10294;DHT22;5192;50.328;7.610;2023-09-19T05:58:53;15.00;72.40
10294;DHT22;5192;50.328;7.610;2023-09-19T06:01:21;14.90;73.50
10294;DHT22;5192;50.328;7.610;2023-09-19T06:03:47;14.90;73.50
10294;DHT22;5192;50.328;7.610;2023-09-19T06:06:15;15.00;76.60
10294;DHT22;5192;50.328;7.610;2023-09-19T06:08:43;14.90;76.70
10294;DHT22;5192;50.328;7.610;2023-09-19T06:11:12;14.90;75.80
10294;DHT22;5192;50.328;7.610;2023-09-19T06:13:39;14.90;78.60
10294;DHT22;5192;50.328;7.610;2023-09-19T06:16:07;14.90;81.30
10294;DHT22;5192;50.328;7.610;2023-09-19T06:18:36;15.00;81.90
10294;DHT22;5192;50.328;7.610;2023-09-19T06:21:04;15.00;82.00
10294;DHT22;5192;50.328;7.610;2023-09-19T06:23:34;15.00;81.90
10294;DHT22;5192;50.328;7.610;2023-09-19T06:26:03;15.10;78.90
10294;DHT22;5192;50.328;7.610;2023-09-19T06:28:33;15.10;79.00
10294;DHT22;5192;50.328;7.610;2023-09-19T06:31:02;15.10;75.70
10294;DHT22;5192;50.328;7.610;2023-09-19T06:33:29;15.20;71.60
10294;DHT22;5192;50.328;7.610;2023-09-19T06:36:00;15.30;66.40
10294;DHT22;5192;50.328;7.610;2023-09-19T06:38:27;15.30;65.30
10294;DHT22;5192;50.328;7.610;2023-09-19T06:40:56;15.30;67.70
10294;DHT22;5192;50.328;7.610;2023-09-19T06:43:25;15.30;64.30
10294;DHT22;5192;50.328;7.610;2023-09-19T06:45:53;15.30;64.30
10294;DHT22;5192;50.328;7.610;2023-09-19T06:48:21;15.30;60.80
10294;DHT22;5192;50.328;7.610;2023-09-19T06:50:48;15.30;58.50
10294;DHT22;5192;50.328;7.610;2023-09-19T06:53:14;15.30;62.70
10294;DHT22;5192;50.328;7.610;2023-09-19T06:55:44;15.40;60.40
10294;DHT22;5192;50.328;7.610;2023-09-19T06:58:13;15.30;55.30
10294;DHT22;5192;50.328;7.610;2023-09-19T07:00:40;15.30;53.50
10294;DHT22;5192;50.328;7.610;2023-09-19T07:03:08;15.30;54.80
10294;DHT22;5192;50.328;7.610;2023-09-19T07:05:40;15.30;51.50
10294;DHT22;5192;50.328;7.610;2023-09-19T07:08:08;15.30;55.30
10294;DHT22;5192;50.328;7.610;2023-09-19T07:10:39;15.30;45.00
10294;DHT22;5192;50.328;7.610;2023-09-19T07:13:19;15.50;49.40
10294;DHT22;5192;50.328;7.610;2023-09-19T07:15:46;15.30;50.40
10294;DHT22;5192;50.328;7.610;2023-09-19T07:18:15;15.30;48.50
10294;DHT22;5192;50.328;7.610;2023-09-19T07:20:46;15.30;52.60
10294;DHT22;5192;50.328;7.610;2023-09-19T07:23:20;15.30;55.70
10294;DHT22;5192;50.328;7.610;2023-09-19T07:25:48;15.30;53.40
10294;DHT22;5192;50.328;7.610;2023-09-19T07:28:17;15.30;53.50
10294;DHT22;5192;50.328;7.610;2023-09-19T07:30:43;15.30;57.20
10294;DHT22;5192;50.328;7.610;2023-09-19T07:33:09;15.40;56.70
10294;DHT22;5192;50.328;7.610;2023-09-19T07:35:40;15.40;52.00
10294;DHT22;5192;50.328;7.610;2023-09-19T07:38:07;15.40;55.20
10294;DHT22;5192;50.328;7.610;2023-09-19T07:40:34;15.30;46.30
10294;DHT22;5192;50.328;7.610;2023-09-19T07:43:01;15.50;48.90
10294;DHT22;5192;50.328;7.610;2023-09-19T07:45:32;15.30;48.00
10294;DHT22;5192;50.328;7.610;2023-09-19T07:47:59;15.30;53.10
10294;DHT22;5192;50.328;7.610;2023-09-19T07:50:32;15.30;44.70
10294;DHT22;5192;50.328;7.610;2023-09-19T07:52:59;15.30;47.90
10294;DHT22;5192;50.328;7.610;2023-09-19T07:55:27;15.30;43.50
10294;DHT22;5192;50.328;7.610;2023-09-19T07:57:54;15.40;42.50
10294;DHT22;5192;50.328;7.610;2023-09-19T08:00:23;15.40;40.00
10294;DHT22;5192;50.328;7.610;2023-09-19T08:02:49;15.50;38.40
10294;DHT22;5192;50.328;7.610;2023-09-19T08:05:17;15.60;40.30
10294;DHT22;5192;50.328;7.610;2023-09-19T08:07:45;15.60;39.00
10294;DHT22;5192;50.328;7.610;2023-09-19T08:10:17;15.80;37.40
10294;DHT22;5192;50.328;7.610;2023-09-19T08:12:48;15.70;37.80
10294;DHT22;5192;50.328;7.610;2023-09-19T08:15:33;15.70;35.90
10294;DHT22;5192;50.328;7.610;2023-09-19T08:17:59;15.70;34.70
10294;DHT22;5192;50.328;7.610;2023-09-19T08:20:25;15.80;35.60
10294;DHT22;5192;50.328;7.610;2023-09-19T08:22:54;15.70;35.40
10294;DHT22;5192;50.328;7.610;2023-09-19T08:25:22;15.80;35.50
10294;DHT22;5192;50.328;7.610;2023-09-19T08:27:49;16.00;34.10
10294;DHT22;5192;50.328;7.610;2023-09-19T08:30:19;16.00;30.90
10294;DHT22;5192;50.328;7.610;2023-09-19T08:32:51;16.10;32.40
10294;DHT22;5192;50.328;7.610;2023-09-19T08:35:18;16.20;31.00
10294;DHT22;5192;50.328;7.610;2023-09-19T08:37:45;16.10;30.50
10294;DHT22;5192;50.328;7.610;2023-09-19T08:40:13;16.10;28.50
10294;DHT22;5192;50.328;7.610;2023-09-19T08:42:56;16.10;28.30
10294;DHT22;5192;50.328;7.610;2023-09-19T08:45:25;16.00;26.70
10294;DHT22;5192;50.328;7.610;2023-09-19T08:50:43;16.10;28.30
10294;DHT22;5192;50.328;7.610;2023-09-19T08:53:27;16.30;29.40
10294;DHT22;5192;50.328;7.610;2023-09-19T08:56:00;16.40;30.00
10294;DHT22;5192;50.328;7.610;2023-09-19T08:58:43;16.30;27.60
10294;DHT22;5192;50.328;7.610;2023-09-19T09:01:11;16.40;27.50
10294;DHT22;5192;50.328;7.610;2023-09-19T09:03:42;16.50;27.00
10294;DHT22;5192;50.328;7.610;2023-09-19T09:06:16;16.50;22.50
10294;DHT22;5192;50.328;7.610;2023-09-19T09:08:46;16.50;25.80
10294;DHT22;5192;50.328;7.610;2023-09-19T09:11:15;16.50;22.10
10294;DHT22;5192;50.328;7.610;2023-09-19T09:13:49;16.70;26.00
10294;DHT22;5192;50.328;7.610;2023-09-19T09:16:16;16.70;23.10
10294;DHT22;5192;50.328;7.610;2023-09-19T09:18:46;16.80;23.60
10294;DHT22;5192;50.328;7.610;2023-09-19T09:21:12;16.80;23.60
10294;DHT22;5192;50.328;7.610;2023-09-19T09:23:41;16.80;22.10
10294;DHT22;5192;50.328;7.610;2023-09-19T09:26:08;16.80;18.50
10294;DHT22;5192;50.328;7.610;2023-09-19T09:28:46;16.80;20.00
10294;DHT22;5192;50.328;7.610;2023-09-19T09:31:24;16.80;14.60
10294;DHT22;5192;50.328;7.610;2023-09-19T09:33:56;16.90;19.80
10294;DHT22;5192;50.328;7.610;2023-09-19T09:36:52;17.00;15.00
10294;DHT22;5192;50.328;7.610;2023-09-19T09:39:33;17.10;14.10
10294;DHT22;5192;50.328;7.610;2023-09-19T09:42:01;17.20;15.00
10294;DHT22;5192;50.328;7.610;2023-09-19T09:44:33;17.30;13.80
10294;DHT22;5192;50.328;7.610;2023-09-19T09:47:02;17.20;12.00
10294;DHT22;5192;50.328;7.610;2023-09-19T09:49:48;17.40;9.20
10294;DHT22;5192;50.328;7.610;2023-09-19T09:52:19;17.50;13.30
10294;DHT22;5192;50.328;7.610;2023-09-19T09:55:04;17.80;12.80
10294;DHT22;5192;50.328;7.610;2023-09-19T09:57:36;17.70;6.90
10294;DHT22;5192;50.328;7.610;2023-09-19T10:00:09;17.80;9.60
10294;DHT22;5192;50.328;7.610;2023-09-19T10:02:54;17.90;9.90
10294;DHT22;5192;50.328;7.610;2023-09-19T10:05:21;17.70;6.30
10294;DHT22;5192;50.328;7.610;2023-09-19T10:07:49;17.60;5.10
10294;DHT22;5192;50.328;7.610;2023-09-19T10:10:38;17.60;6.10
10294;DHT22;5192;50.328;7.610;2023-09-19T10:13:23;17.90;5.10
10294;DHT22;5192;50.328;7.610;2023-09-19T10:16:00;17.90;2.00
10294;DHT22;5192;50.328;7.610;2023-09-19T10:18:38;18.00;1.00
10294;DHT22;5192;50.328;7.610;2023-09-19T10:21:08;18.00;2.80
10294;DHT22;5192;50.328;7.610;2023-09-19T10:23:37;17.90;1.00
10294;DHT22;5192;50.328;7.610;2023-09-19T10:26:05;17.90;1.00
10294;DHT22;5192;50.328;7.610;2023-09-19T10:28:32;17.80;1.40
10294;DHT22;5192;50.328;7.610;2023-09-19T10:31:02;17.60;1.00
10294;DHT22;5192;50.328;7.610;2023-09-19T10:33:36;17.70;4.80
10294;DHT22;5192;50.328;7.610;2023-09-19T10:36:05;17.70;4.00
10294;DHT22;5192;50.328;7.610;2023-09-19T10:38:33;17.60;4.00
10294;DHT22;5192;50.328;7.610;2023-09-19T10:41:01;17.80;1.00
10294;DHT22;5192;50.328;7.610;2023-09-19T10:43:31;17.70;1.00
10294;DHT22;5192;50.328;7.610;2023-09-19T10:46:03;17.60;1.00
10294;DHT22;5192;50.328;7.610;2023-09-19T10:48:35;17.60;1.00
10294;DHT22;5192;50.328;7.610;2023-09-19T10:51:06;17.90;2.10
10294;DHT22;5192;50.328;7.610;2023-09-19T10:53:51;18.00;1.00
10294;DHT22;5192;50.328;7.610;2023-09-19T10:56:35;18.20;1.00
10294;DHT22;5192;50.328;7.610;2023-09-19T10:59:27;18.20;1.00
10294;DHT22;5192;50.328;7.610;2023-09-19T11:02:18;18.30;1.00
10294;DHT22;5192;50.328;7.610;2023-09-19T11:04:45;18.30;1.00
10294;DHT22;5192;50.328;7.610;2023-09-19T11:07:14;18.30;1.00
10294;DHT22;5192;50.328;7.610;2023-09-19T11:09:58;18.30;1.00
10294;DHT22;5192;50.328;7.610;2023-09-19T11:15:08;18.30;1.00
10294;DHT22;5192;50.328;7.610;2023-09-19T11:17:54;18.50;1.00
10294;DHT22;5192;50.328;7.610;2023-09-19T11:20:21;18.70;1.00
10294;DHT22;5192;50.328;7.610;2023-09-19T11:30:54;18.90;1.00
10294;DHT22;5192;50.328;7.610;2023-09-19T11:33:34;19.20;1.00
10294;DHT22;5192;50.328;7.610;2023-09-19T11:36:28;19.30;1.00
10294;DHT22;5192;50.328;7.610;2023-09-19T11:39:03;19.50;1.00
10294;DHT22;5192;50.328;7.610;2023-09-19T11:41:40;19.40;1.00
10294;DHT22;5192;50.328;7.610;2023-09-19T11:46:55;19.60;1.00
10294;DHT22;5192;50.328;7.610;2023-09-19T11:49:43;19.60;1.00
10294;DHT22;5192;50.328;7.610;2023-09-19T11:52:12;19.70;1.00
10294;DHT22;5192;50.328;7.610;2023-09-19T11:55:08;19.70;1.00
10294;DHT22;5192;50.328;7.610;2023-09-19T11:57:37;19.70;1.00
10294;DHT22;5192;50.328;7.610;2023-09-19T12:00:04;19.50;1.00
10294;DHT22;5192;50.328;7.610;2023-09-19T12:02:49;19.70;1.00
10294;DHT22;5192;50.328;7.610;2023-09-19T12:05:30;19.70;1.00
10294;DHT22;5192;50.328;7.610;2023-09-19T12:08:00;19.80;1.00
10294;DHT22;5192;50.328;7.610;2023-09-19T12:10:27;19.80;1.00
10294;DHT22;5192;50.328;7.610;2023-09-19T12:12:54;19.70;1.00
10294;DHT22;5192;50.328;7.610;2023-09-19T12:15:24;19.70;1.00
10294;DHT22;5192;50.328;7.610;2023-09-19T12:18:05;20.00;1.00
10294;DHT22;5192;50.328;7.610;2023-09-19T12:20:46;20.00;1.00
10294;DHT22;5192;50.328;7.610;2023-09-19T12:23:17;20.10;1.00
10294;DHT22;5192;50.328;7.610;2023-09-19T12:25:45;20.20;1.00
10294;DHT22;5192;50.328;7.610;2023-09-19T12:28:18;20.40;1.00
10294;DHT22;5192;50.328;7.610;2023-09-19T12:30:45;20.40;1.00
10294;DHT22;5192;50.328;7.610;2023-09-19T12:33:19;20.70;1.00
10294;DHT22;5192;50.328;7.610;2023-09-19T12:35:54;20.80;1.00
10294;DHT22;5192;50.328;7.610;2023-09-19T12:38:28;20.80;1.00
10294;DHT22;5192;50.328;7.610;2023-09-19T12:40:59;20.80;1.00
10294;DHT22;5192;50.328;7.610;2023-09-19T12:43:29;20.80;1.00
10294;DHT22;5192;50.328;7.610;2023-09-19T12:46:00;20.70;1.00
10294;DHT22;5192;50.328;7.610;2023-09-19T12:48:30;20.70;1.00
10294;DHT22;5192;50.328;7.610;2023-09-19T12:51:07;20.50;1.00
10294;DHT22;5192;50.328;7.610;2023-09-19T12:53:43;20.60;1.00
10294;DHT22;5192;50.328;7.610;2023-09-19T12:56:13;20.40;1.00
10294;DHT22;5192;50.328;7.610;2023-09-19T12:59:01;20.60;1.00
10294;DHT22;5192;50.328;7.610;2023-09-19T13:01:28;20.70;1.00
10294;DHT22;5192;50.328;7.610;2023-09-19T13:04:32;20.60;1.00
10294;DHT22;5192;50.328;7.610;2023-09-19T13:07:01;20.80;1.00
10294;DHT22;5192;50.328;7.610;2023-09-19T13:09:28;20.90;1.00
10294;DHT22;5192;50.328;7.610;2023-09-19T13:12:01;21.00;1.00
10294;DHT22;5192;50.328;7.610;2023-09-19T13:14:29;20.90;1.00
10294;DHT22;5192;50.328;7.610;2023-09-19T13:17:26;20.80;1.00
10294;DHT22;5192;50.328;7.610;2023-09-19T13:20:24;21.50;1.00
10294;DHT22;5192;50.328;7.610;2023-09-19T13:22:55;22.00;1.00
10294;DHT22;5192;50.328;7.610;2023-09-19T13:25:27;22.10;1.00
10294;DHT22;5192;50.328;7.610;2023-09-19T13:27:57;22.80;1.00
10294;DHT22;5192;50.328;7.610;2023-09-19T13:30:26;23.40;1.00
10294;DHT22;5192;50.328;7.610;2023-09-19T13:33:12;24.00;1.00
10294;DHT22;5192;50.328;7.610;2023-09-19T13:35:41;24.60;1.00
10294;DHT22;5192;50.328;7.610;2023-09-19T13:38:10;23.70;1.00
10294;DHT22;5192;50.328;7.610;2023-09-19T13:40:40;23.80;1.00
10294;DHT22;5192;50.328;7.610;2023-09-19T13:43:11;24.60;1.00
10294;DHT22;5192;50.328;7.610;2023-09-19T13:45:39;25.10;1.00
10294;DHT22;5192;50.328;7.610;2023-09-19T13:48:09;24.80;1.00
10294;DHT22;5192;50.328;7.610;2023-09-19T13:50:37;25.00;1.00
10294;DHT22;5192;50.328;7.610;2023-09-19T13:53:09;24.70;1.00
10294;DHT22;5192;50.328;7.610;2023-09-19T13:55:36;24.30;1.00
10294;DHT22;5192;50.328;7.610;2023-09-19T13:58:03;24.10;1.00
10294;DHT22;5192;50.328;7.610;2023-09-19T14:00:34;23.30;1.00
10294;DHT22;5192;50.328;7.610;2023-09-19T14:03:02;23.20;1.00
10294;DHT22;5192;50.328;7.610;2023-09-19T14:05:31;23.00;1.00
10294;DHT22;5192;50.328;7.610;2023-09-19T14:08:00;23.30;1.00
10294;DHT22;5192;50.328;7.610;2023-09-19T14:10:30;23.10;1.00
10294;DHT22;5192;50.328;7.610;2023-09-19T14:12:58;23.00;1.00
10294;DHT22;5192;50.328;7.610;2023-09-19T14:15:30;22.80;1.00
10294;DHT22;5192;50.328;7.610;2023-09-19T14:17:57;22.40;1.00
10294;DHT22;5192;50.328;7.610;2023-09-19T14:20:28;22.80;1.00
10294;DHT22;5192;50.328;7.610;2023-09-19T14:22:57;23.30;1.00
10294;DHT22;5192;50.328;7.610;2023-09-19T14:25:24;23.40;1.00
10294;DHT22;5192;50.328;7.610;2023-09-19T14:27:52;23.10;1.00
10294;DHT22;5192;50.328;7.610;2023-09-19T14:30:19;23.00;1.00
10294;DHT22;5192;50.328;7.610;2023-09-19T14:32:46;22.20;1.00
10294;DHT22;5192;50.328;7.610;2023-09-19T14:35:13;21.80;1.00
10294;DHT22;5192;50.328;7.610;2023-09-19T14:37:40;21.60;1.00
10294;DHT22;5192;50.328;7.610;2023-09-19T14:40:07;21.50;1.00
10294;DHT22;5192;50.328;7.610;2023-09-19T14:42:38;21.20;1.00
10294;DHT22;5192;50.328;7.610;2023-09-19T14:45:06;21.10;1.00
10294;DHT22;5192;50.328;7.610;2023-09-19T14:47:33;21.00;1.00
10294;DHT22;5192;50.328;7.610;2023-09-19T14:50:01;21.10;1.00
10294;DHT22;5192;50.328;7.610;2023-09-19T14:52:28;21.10;1.00
10294;DHT22;5192;50.328;7.610;2023-09-19T14:54:55;20.90;1.00
10294;DHT22;5192;50.328;7.610;2023-09-19T14:57:24;21.00;1.00
10294;DHT22;5192;50.328;7.610;2023-09-19T14:59:50;21.10;1.00
10294;DHT22;5192;50.328;7.610;2023-09-19T15:02:16;20.90;1.00
10294;DHT22;5192;50.328;7.610;2023-09-19T15:04:44;21.00;1.00
10294;DHT22;5192;50.328;7.610;2023-09-19T15:07:14;21.10;1.00
10294;DHT22;5192;50.328;7.610;2023-09-19T15:09:46;21.20;1.00
10294;DHT22;5192;50.328;7.610;2023-09-19T15:12:13;21.10;1.00
10294;DHT22;5192;50.328;7.610;2023-09-19T15:14:42;21.00;1.00
10294;DHT22;5192;50.328;7.610;2023-09-19T15:17:09;20.80;1.00
10294;DHT22;5192;50.328;7.610;2023-09-19T15:19:36;20.80;1.00
10294;DHT22;5192;50.328;7.610;2023-09-19T15:22:04;20.90;1.00
10294;DHT22;5192;50.328;7.610;2023-09-19T15:24:30;21.00;1.00
10294;DHT22;5192;50.328;7.610;2023-09-19T15:26:58;21.20;1.00
10294;DHT22;5192;50.328;7.610;2023-09-19T15:29:25;21.30;1.00
10294;DHT22;5192;50.328;7.610;2023-09-19T15:31:54;21.40;1.00
10294;DHT22;5192;50.328;7.610;2023-09-19T15:34:26;21.30;1.00
10294;DHT22;5192;50.328;7.610;2023-09-19T15:36:53;21.00;1.00
10294;DHT22;5192;50.328;7.610;2023-09-19T15:39:18;21.00;1.00
10294;DHT22;5192;50.328;7.610;2023-09-19T15:41:49;21.00;1.00
10294;DHT22;5192;50.328;7.610;2023-09-19T15:44:19;21.10;1.00
10294;DHT22;5192;50.328;7.610;2023-09-19T15:46:46;21.10;1.00
10294;DHT22;5192;50.328;7.610;2023-09-19T15:49:14;21.00;1.00
10294;DHT22;5192;50.328;7.610;2023-09-19T15:51:40;20.90;1.00
10294;DHT22;5192;50.328;7.610;2023-09-19T15:54:15;20.80;1.00
10294;DHT22;5192;50.328;7.610;2023-09-19T15:56:42;20.80;1.00
10294;DHT22;5192;50.328;7.610;2023-09-19T15:59:09;20.70;1.00
10294;DHT22;5192;50.328;7.610;2023-09-19T16:01:35;20.40;1.00
10294;DHT22;5192;50.328;7.610;2023-09-19T16:04:03;20.30;1.00
10294;DHT22;5192;50.328;7.610;2023-09-19T16:06:32;20.30;1.00
10294;DHT22;5192;50.328;7.610;2023-09-19T16:08:59;20.20;1.00
10294;DHT22;5192;50.328;7.610;2023-09-19T16:11:27;20.20;1.00
10294;DHT22;5192;50.328;7.610;2023-09-19T16:13:54;20.30;1.00
10294;DHT22;5192;50.328;7.610;2023-09-19T16:16:21;20.40;1.00
10294;DHT22;5192;50.328;7.610;2023-09-19T16:18:53;20.40;1.00
10294;DHT22;5192;50.328;7.610;2023-09-19T16:21:24;20.40;1.00
10294;DHT22;5192;50.328;7.610;2023-09-19T16:23:54;20.50;1.00
10294;DHT22;5192;50.328;7.610;2023-09-19T16:26:24;20.50;1.00
10294;DHT22;5192;50.328;7.610;2023-09-19T16:28:53;20.40;1.00
10294;DHT22;5192;50.328;7.610;2023-09-19T16:31:28;20.50;1.00
10294;DHT22;5192;50.328;7.610;2023-09-19T16:33:57;20.50;1.00
10294;DHT22;5192;50.328;7.610;2023-09-19T16:36:25;20.60;1.00
10294;DHT22;5192;50.328;7.610;2023-09-19T16:38:52;20.60;1.00
10294;DHT22;5192;50.328;7.610;2023-09-19T16:41:19;20.70;1.00
10294;DHT22;5192;50.328;7.610;2023-09-19T16:43:47;20.60;1.00
10294;DHT22;5192;50.328;7.610;2023-09-19T16:46:14;20.40;1.00
10294;DHT22;5192;50.328;7.610;2023-09-19T16:48:48;20.40;1.00